Time;durP1;ratioP1;P1;durP2;ratioP2;P2;SDS_P1;SDS_P2;PMS_P1;PMS_P2;Temp;Humidity;BMP_temperature;BMP_pressure;BME280_temperature;BME280_humidity;BME280_pressure;Samples;Min_cycle;Max_cycle;Signal;HPM_P1;HPM_P2
2023/04/21 00:00:00;;;;;;;10.87;8.87;;;6.50;99.90;;;;;;5120336;28;20211;-70
2023/04/21 00:02:27;;;;;;;10.63;9.00;;;6.30;99.90;;;;;;5120601;28;20203;-71
2023/04/21 00:04:55;;;;;;;9.33;8.23;;;6.00;99.90;;;;;;5122049;28;20251;-71
2023/04/21 00:07:21;;;;;;;9.63;8.53;;;5.90;99.90;;;;;;5116943;28;20224;-71
2023/04/21 00:09:48;;;;;;;12.23;9.93;;;5.70;99.90;;;;;;5117014;28;20267;-70
2023/04/21 00:12:16;;;;;;;9.83;8.83;;;5.60;99.90;;;;;;5115715;28;20608;-70
2023/04/21 00:14:43;;;;;;;11.13;8.77;;;5.40;99.90;;;;;;5115049;27;20227;-70
2023/04/21 00:17:09;;;;;;;11.13;9.97;;;5.40;99.90;;;;;;5115225;28;20671;-70
2023/04/21 00:19:36;;;;;;;12.20;10.50;;;5.30;99.90;;;;;;5115897;28;20562;-70
2023/04/21 00:22:03;;;;;;;11.87;9.80;;;5.30;99.90;;;;;;5116174;28;20612;-71
2023/04/21 00:24:30;;;;;;;11.43;9.87;;;5.30;99.90;;;;;;5115959;28;20740;-70
2023/04/21 00:26:56;;;;;;;11.43;10.23;;;5.40;99.90;;;;;;5115617;28;20764;-71
2023/04/21 00:29:24;;;;;;;12.73;11.07;;;5.50;99.90;;;;;;5116582;28;20211;-71
2023/04/21 00:31:51;;;;;;;13.53;11.43;;;5.60;99.90;;;;;;5117417;28;20208;-71
2023/04/21 00:34:18;;;;;;;13.97;12.00;;;5.50;99.90;;;;;;5115696;28;20231;-70
2023/04/21 00:36:44;;;;;;;15.57;12.00;;;5.60;99.90;;;;;;5116052;28;20207;-70
2023/04/21 00:39:11;;;;;;;13.80;11.70;;;5.60;99.90;;;;;;5115235;28;20214;-70
2023/04/21 00:41:39;;;;;;;14.63;11.27;;;5.50;99.90;;;;;;5115714;28;20201;-71
2023/04/21 00:44:07;;;;;;;11.90;10.67;;;5.40;99.90;;;;;;5117312;28;20648;-70
2023/04/21 00:46:36;;;;;;;14.23;11.77;;;5.30;99.90;;;;;;5121672;28;20223;-70
2023/04/21 00:49:07;;;;;;;15.87;12.77;;;5.30;99.90;;;;;;5119589;28;20211;-70
2023/04/21 00:51:35;;;;;;;15.13;12.87;;;5.30;99.90;;;;;;5116930;28;20208;-71
2023/04/21 00:54:04;;;;;;;13.67;11.93;;;5.20;99.90;;;;;;5116738;28;20227;-71
2023/04/21 00:56:32;;;;;;;15.57;12.93;;;5.30;99.90;;;;;;5114577;28;20290;-71
2023/04/21 00:59:00;;;;;;;16.03;12.93;;;5.50;99.90;;;;;;5115034;28;20206;-70
2023/04/21 01:01:28;;;;;;;13.93;12.07;;;5.60;99.90;;;;;;5116522;28;20210;-70
2023/04/21 01:03:57;;;;;;;14.27;12.03;;;5.40;99.90;;;;;;5119086;28;20318;-70
2023/04/21 01:06:24;;;;;;;14.33;12.00;;;5.50;99.90;;;;;;5116557;28;20227;-70
2023/04/21 01:08:52;;;;;;;12.90;11.37;;;5.50;99.90;;;;;;5116026;28;20226;-70
2023/04/21 01:11:20;;;;;;;14.20;11.77;;;5.40;99.90;;;;;;5114833;28;20683;-71
2023/04/21 01:13:47;;;;;;;15.63;12.53;;;5.50;99.90;;;;;;5113686;28;20259;-70
2023/04/21 01:16:16;;;;;;;15.07;13.10;;;5.50;99.90;;;;;;5115554;28;20238;-70
2023/04/21 01:18:43;;;;;;;14.87;12.57;;;5.60;99.90;;;;;;5117591;28;20212;-70
2023/04/21 01:21:11;;;;;;;14.97;12.87;;;5.70;99.90;;;;;;5117170;28;20217;-71
2023/04/21 01:23:40;;;;;;;15.87;12.87;;;5.80;99.90;;;;;;5116344;28;20227;-70
2023/04/21 01:26:06;;;;;;;14.60;12.50;;;5.80;99.90;;;;;;5115873;28;20227;-70
2023/04/21 01:28:33;;;;;;;14.93;12.10;;;5.80;99.90;;;;;;5116067;28;20211;-70
2023/04/21 01:31:01;;;;;;;15.60;12.97;;;5.90;99.90;;;;;;5114957;28;20207;-70
2023/04/21 01:33:28;;;;;;;15.27;11.90;;;6.00;99.90;;;;;;5113728;28;20737;-70
2023/04/21 01:35:55;;;;;;;14.63;12.57;;;5.90;99.90;;;;;;5113609;28;20667;-70
2023/04/21 01:38:22;;;;;;;14.83;12.80;;;5.90;99.90;;;;;;5113798;28;20199;-70
2023/04/21 01:40:52;;;;;;;13.87;12.03;;;6.00;99.90;;;;;;5113383;28;20203;-69
2023/04/21 01:43:21;;;;;;;15.47;12.57;;;6.00;99.90;;;;;;5113006;28;20234;-70
2023/04/21 01:45:48;;;;;;;14.83;12.57;;;6.10;99.90;;;;;;5113186;28;20202;-70
2023/04/21 01:48:15;;;;;;;14.57;12.23;;;6.00;99.90;;;;;;5114050;28;20256;-69
2023/04/21 01:50:42;;;;;;;14.37;12.03;;;6.00;99.90;;;;;;5114132;28;20207;-69
2023/04/21 01:53:08;;;;;;;14.80;11.90;;;6.10;99.90;;;;;;5113883;28;20246;-71
2023/04/21 01:55:35;;;;;;;13.30;11.37;;;6.00;99.90;;;;;;5113642;28;20218;-70
2023/04/21 01:58:03;;;;;;;13.77;11.43;;;6.00;99.90;;;;;;5113643;28;20199;-69
2023/04/21 02:00:30;;;;;;;13.83;12.17;;;6.00;99.90;;;;;;5116082;28;20207;-70
2023/04/21 02:02:57;;;;;;;12.90;11.23;;;6.10;99.90;;;;;;5116667;28;20199;-70
2023/04/21 02:05:23;;;;;;;13.43;11.20;;;6.10;99.90;;;;;;5117138;28;20207;-70
2023/04/21 02:07:50;;;;;;;15.53;12.20;;;6.10;99.90;;;;;;5116815;28;20223;-69
2023/04/21 02:10:17;;;;;;;14.70;11.70;;;6.20;99.90;;;;;;5116788;28;20249;-69
2023/04/21 02:12:44;;;;;;;14.13;11.47;;;6.20;99.90;;;;;;5116436;28;20215;-69
2023/04/21 02:15:12;;;;;;;13.57;11.63;;;6.20;99.90;;;;;;5116758;28;20203;-70
2023/04/21 02:17:39;;;;;;;12.50;11.10;;;6.30;99.90;;;;;;5116349;28;20237;-70
2023/04/21 02:20:07;;;;;;;12.50;10.90;;;6.30;99.90;;;;;;5117270;28;20199;-71
2023/04/21 02:22:34;;;;;;;13.47;10.97;;;6.20;99.90;;;;;;5116565;28;20214;-70
2023/04/21 02:25:00;;;;;;;11.93;10.30;;;6.20;99.90;;;;;;5116425;27;20223;-69
2023/04/21 02:27:27;;;;;;;12.40;10.93;;;6.10;99.90;;;;;;5116217;28;20241;-70
2023/04/21 02:29:54;;;;;;;12.30;10.70;;;6.10;99.90;;;;;;5116376;28;20260;-71
2023/04/21 02:32:22;;;;;;;12.10;10.30;;;6.00;99.90;;;;;;5116234;28;20663;-70
2023/04/21 02:34:48;;;;;;;13.83;10.97;;;6.00;99.90;;;;;;5115780;28;20235;-70
2023/04/21 02:37:15;;;;;;;14.50;11.47;;;5.90;99.90;;;;;;5116528;27;20202;-70
2023/04/21 02:39:42;;;;;;;11.53;10.33;;;5.90;99.90;;;;;;5116184;27;20666;-70
2023/04/21 02:42:09;;;;;;;12.60;10.77;;;5.90;99.90;;;;;;5116114;28;20203;-71
2023/04/21 02:44:37;;;;;;;12.97;10.33;;;5.90;99.90;;;;;;5115782;28;20228;-70
2023/04/21 02:47:04;;;;;;;14.40;12.57;;;5.90;99.90;;;;;;5115976;27;20231;-71
2023/04/21 02:49:32;;;;;;;16.23;13.57;;;5.90;99.90;;;;;;5116165;28;20210;-70
2023/04/21 02:51:59;;;;;;;16.80;11.83;;;6.00;99.90;;;;;;5115761;28;20694;-71
2023/04/21 02:54:25;;;;;;;15.20;11.63;;;6.10;99.90;;;;;;5115389;28;20231;-72
2023/04/21 02:56:52;;;;;;;12.87;10.90;;;6.00;99.90;;;;;;5116094;28;20200;-72
2023/04/21 02:59:19;;;;;;;12.67;11.00;;;6.00;99.90;;;;;;5115767;28;20203;-70
2023/04/21 03:01:47;;;;;;;13.50;11.50;;;5.90;99.90;;;;;;5115874;28;20203;-71
2023/04/21 03:04:14;;;;;;;13.87;11.60;;;5.90;99.90;;;;;;5115462;28;20318;-69
2023/04/21 03:06:42;;;;;;;14.47;11.50;;;5.90;99.90;;;;;;5115156;28;20583;-70
2023/04/21 03:09:09;;;;;;;13.57;11.47;;;5.90;99.90;;;;;;5115255;28;20215;-69
2023/04/21 03:11:35;;;;;;;14.30;11.40;;;5.90;99.90;;;;;;5114603;28;20229;-71
2023/04/21 03:14:04;;;;;;;11.87;10.43;;;5.90;99.90;;;;;;5115117;28;20697;-69
2023/04/21 03:16:31;;;;;;;14.17;10.80;;;5.80;99.90;;;;;;5115800;28;20195;-70
2023/04/21 03:18:58;;;;;;;12.20;10.53;;;5.80;99.90;;;;;;5118179;28;20208;-70
2023/04/21 03:21:24;;;;;;;83.20;13.70;;;5.80;99.90;;;;;;5120269;28;20212;-70
2023/04/21 03:23:55;;;;;;;17.07;10.93;;;5.60;99.90;;;;;;5121770;28;20219;-70
2023/04/21 03:26:22;;;;;;;16.13;10.80;;;5.50;99.90;;;;;;5129956;28;20199;-70
2023/04/21 03:28:48;;;;;;;26.07;11.43;;;5.40;99.90;;;;;;5119965;28;20253;-70
2023/04/21 03:31:15;;;;;;;13.30;10.20;;;5.50;99.90;;;;;;5117385;28;20204;-69
2023/04/21 03:33:41;;;;;;;24.27;10.97;;;5.40;99.90;;;;;;5115330;27;20655;-70
2023/04/21 03:36:09;;;;;;;26.93;10.40;;;5.30;99.90;;;;;;5115111;28;20208;-70
2023/04/21 03:38:35;;;;;;;15.97;10.83;;;5.30;99.90;;;;;;5115843;28;20207;-70
2023/04/21 03:41:05;;;;;;;14.97;10.63;;;5.20;99.90;;;;;;5115072;28;20276;-71
2023/04/21 03:43:31;;;;;;;19.13;10.83;;;5.20;99.90;;;;;;5115255;28;20227;-70
2023/04/21 03:45:58;;;;;;;19.20;10.97;;;5.20;99.90;;;;;;5115003;28;20200;-70
2023/04/21 03:48:25;;;;;;;26.40;11.70;;;5.10;99.90;;;;;;5114842;28;20231;-70
2023/04/21 03:50:51;;;;;;;21.20;11.63;;;5.10;99.90;;;;;;5114852;28;20207;-70
2023/04/21 03:53:18;;;;;;;40.40;11.33;;;5.10;99.90;;;;;;5114874;28;20236;-70
2023/04/21 03:55:47;;;;;;;17.83;11.93;;;5.10;99.90;;;;;;5115129;28;20483;-70
2023/04/21 03:58:15;;;;;;;32.87;11.80;;;5.10;99.90;;;;;;5115063;28;20283;-70
2023/04/21 04:00:42;;;;;;;18.60;10.93;;;5.20;99.90;;;;;;5114667;27;20212;-70
2023/04/21 04:03:09;;;;;;;12.73;10.67;;;5.20;99.90;;;;;;5114522;28;20230;-71
2023/04/21 04:05:36;;;;;;;14.77;11.17;;;5.20;99.90;;;;;;5114533;28;20220;-70
2023/04/21 04:08:02;;;;;;;13.40;11.33;;;5.30;99.90;;;;;;5114623;28;20266;-70
2023/04/21 04:10:29;;;;;;;13.17;10.70;;;5.20;99.90;;;;;;5114476;28;20215;-70
2023/04/21 04:12:56;;;;;;;13.33;10.67;;;5.20;99.90;;;;;;5114539;28;20211;-70
2023/04/21 04:15:24;;;;;;;13.20;11.47;;;5.20;99.90;;;;;;5114537;28;20203;-70
2023/04/21 04:17:50;;;;;;;12.10;10.07;;;5.20;99.90;;;;;;5114279;28;20207;-71
2023/04/21 04:20:17;;;;;;;11.40;10.20;;;5.20;99.90;;;;;;5114188;28;20208;-70
2023/04/21 04:22:44;;;;;;;11.83;10.10;;;5.20;99.90;;;;;;5113751;28;20208;-70
2023/04/21 04:25:11;;;;;;;11.07;9.90;;;5.20;99.90;;;;;;5114396;28;20204;-70
2023/04/21 04:27:38;;;;;;;13.17;10.47;;;5.10;99.90;;;;;;5114576;28;20593;-69
2023/04/21 04:30:06;;;;;;;12.87;10.87;;;5.10;99.90;;;;;;5115778;28;20586;-70
2023/04/21 04:32:34;;;;;;;12.50;10.27;;;5.20;99.90;;;;;;5117654;28;20207;-71
2023/04/21 04:35:01;;;;;;;11.33;9.97;;;5.20;99.90;;;;;;5116735;28;20660;-71
2023/04/21 04:37:28;;;;;;;12.33;10.40;;;5.30;99.90;;;;;;5115508;28;20210;-70
2023/04/21 04:39:55;;;;;;;11.67;10.03;;;5.40;99.90;;;;;;5116194;28;20199;-71
2023/04/21 04:42:24;;;;;;;10.77;9.47;;;5.50;99.90;;;;;;5115629;28;20560;-70
2023/04/21 04:44:53;;;;;;;16.90;13.43;;;5.60;99.90;;;;;;5115319;28;20227;-71
2023/04/21 04:47:20;;;;;;;11.57;9.60;;;5.50;99.90;;;;;;5114114;28;20223;-70
2023/04/21 04:49:48;;;;;;;12.70;9.80;;;5.50;99.90;;;;;;5113686;28;20221;-71
2023/04/21 04:52:15;;;;;;;11.43;9.20;;;5.60;99.90;;;;;;5113744;28;20241;-69
2023/04/21 04:54:41;;;;;;;10.40;9.10;;;5.70;99.90;;;;;;5113221;28;20223;-71
2023/04/21 04:57:08;;;;;;;13.13;10.03;;;5.80;99.90;;;;;;5113545;28;20587;-69
2023/04/21 04:59:35;;;;;;;9.57;8.47;;;5.70;99.90;;;;;;5113498;28;20616;-70
2023/04/21 05:02:02;;;;;;;11.30;9.50;;;5.70;99.90;;;;;;5113547;28;20289;-69
2023/04/21 05:04:29;;;;;;;10.93;9.00;;;5.60;99.90;;;;;;5113574;28;20319;-69
2023/04/21 05:06:57;;;;;;;11.30;9.80;;;5.50;99.90;;;;;;5114130;28;20208;-68
2023/04/21 05:09:24;;;;;;;15.67;9.90;;;5.60;99.90;;;;;;5113440;28;20204;-69
2023/04/21 05:11:51;;;;;;;11.17;9.70;;;5.70;99.90;;;;;;5113422;28;20288;-69
2023/04/21 05:14:18;;;;;;;11.03;8.80;;;5.70;99.90;;;;;;5114030;28;20230;-69
2023/04/21 05:16:44;;;;;;;10.83;8.77;;;5.60;99.90;;;;;;5115116;28;20227;-70
2023/04/21 05:19:11;;;;;;;9.47;7.93;;;5.50;99.90;;;;;;5114314;28;20203;-70
2023/04/21 05:21:38;;;;;;;9.63;8.20;;;5.50;99.90;;;;;;5113970;28;20199;-69
2023/04/21 05:24:06;;;;;;;8.90;8.00;;;5.60;99.90;;;;;;5113055;28;20231;-70
2023/04/21 05:26:33;;;;;;;11.83;8.40;;;5.70;99.90;;;;;;5113095;28;20203;-69
2023/04/21 05:28:59;;;;;;;9.70;8.70;;;5.90;99.90;;;;;;5112745;28;20223;-71
2023/04/21 05:31:26;;;;;;;8.20;7.40;;;6.00;99.90;;;;;;5112685;28;20207;-71
2023/04/21 05:33:53;;;;;;;8.97;8.07;;;6.10;99.90;;;;;;5111676;28;20609;-69
2023/04/21 05:36:20;;;;;;;8.87;7.97;;;6.10;99.90;;;;;;5112920;28;20227;-69
2023/04/21 05:38:47;;;;;;;9.77;8.00;;;6.10;99.90;;;;;;5112974;28;20203;-70
2023/04/21 05:41:18;;;;;;;9.43;8.53;;;6.20;99.90;;;;;;5112789;28;20222;-70
2023/04/21 05:43:46;;;;;;;9.57;8.57;;;6.50;99.90;;;;;;5112171;28;20255;-71
2023/04/21 05:46:13;;;;;;;12.60;10.23;;;6.70;99.90;;;;;;5112799;28;20215;-70
2023/04/21 05:48:40;;;;;;;10.77;8.93;;;6.90;99.90;;;;;;5112479;28;20224;-70
2023/04/21 05:51:11;;;;;;;10.40;8.70;;;7.20;99.90;;;;;;5112286;28;20208;-71
2023/04/21 05:53:38;;;;;;;9.87;8.87;;;7.40;99.90;;;;;;5112428;28;20288;-69
2023/04/21 05:56:05;;;;;;;10.27;9.07;;;7.50;99.90;;;;;;5112302;28;20685;-69
2023/04/21 05:58:33;;;;;;;8.67;7.77;;;7.50;99.90;;;;;;5112283;28;20218;-70
2023/04/21 06:01:00;;;;;;;9.63;8.63;;;7.50;99.90;;;;;;5112516;28;20218;-71
2023/04/21 06:03:27;;;;;;;10.10;9.03;;;7.60;99.90;;;;;;5112098;28;20269;-71
2023/04/21 06:05:54;;;;;;;10.27;9.07;;;7.80;99.90;;;;;;5112282;28;20206;-70
2023/04/21 06:08:21;;;;;;;9.63;8.63;;;7.90;99.90;;;;;;5112195;28;20223;-70
2023/04/21 06:10:48;;;;;;;15.70;11.97;;;8.10;99.90;;;;;;5111996;28;20226;-69
2023/04/21 06:13:14;;;;;;;10.47;9.37;;;8.40;99.90;;;;;;5112051;28;20233;-70
2023/04/21 06:15:42;;;;;;;10.73;9.47;;;8.60;99.90;;;;;;5112280;28;20204;-71
2023/04/21 06:18:09;;;;;;;13.07;9.83;;;8.90;99.90;;;;;;5112338;28;20207;-70
2023/04/21 06:20:36;;;;;;;10.80;9.70;;;9.10;99.90;;;;;;5112213;28;20242;-70
2023/04/21 06:23:02;;;;;;;10.63;9.47;;;9.30;99.90;;;;;;5111669;28;20241;-70
2023/04/21 06:25:29;;;;;;;10.60;9.43;;;9.50;99.90;;;;;;5111812;28;20629;-70
2023/04/21 06:27:56;;;;;;;11.90;8.80;;;9.80;99.90;;;;;;5111984;28;20334;-70
2023/04/21 06:30:23;;;;;;;10.43;9.23;;;10.10;99.90;;;;;;5112021;28;20614;-71
2023/04/21 06:32:51;;;;;;;10.13;8.93;;;10.40;99.90;;;;;;5111753;28;20203;-71
2023/04/21 06:35:19;;;;;;;10.10;9.07;;;10.60;99.90;;;;;;5111786;28;20215;-71
2023/04/21 06:37:46;;;;;;;9.27;8.10;;;10.80;99.90;;;;;;5111710;28;20200;-71
2023/04/21 06:40:14;;;;;;;10.07;9.00;;;10.80;99.90;;;;;;5111888;28;20208;-71
2023/04/21 06:42:41;;;;;;;10.27;9.17;;;10.80;99.90;;;;;;5111867;28;20210;-71
2023/04/21 06:45:09;;;;;;;11.63;10.03;;;10.70;99.90;;;;;;5111819;28;20210;-71
2023/04/21 06:47:35;;;;;;;10.30;9.20;;;10.70;99.90;;;;;;5115517;28;20219;-72
2023/04/21 06:50:04;;;;;;;11.20;9.43;;;10.70;99.90;;;;;;5115600;27;20667;-70
2023/04/21 06:52:31;;;;;;;11.73;9.23;;;10.60;99.90;;;;;;5115441;28;20675;-70
2023/04/21 06:54:58;;;;;;;9.73;8.40;;;10.40;99.90;;;;;;5115272;28;20306;-70
2023/04/21 06:57:25;;;;;;;12.43;9.30;;;10.30;99.90;;;;;;5115530;28;20206;-70
2023/04/21 06:59:52;;;;;;;11.33;9.23;;;10.50;99.90;;;;;;5115165;28;20217;-70
2023/04/21 07:02:18;;;;;;;9.57;8.43;;;11.00;99.90;;;;;;5115386;28;20231;-71
2023/04/21 07:04:45;;;;;;;8.63;7.53;;;12.40;99.90;;;;;;5114937;28;20238;-69
2023/04/21 07:07:13;;;;;;;7.70;6.90;;;14.50;99.90;;;;;;5114905;28;20210;-69
2023/04/21 07:09:40;;;;;;;9.53;7.17;;;15.50;99.90;;;;;;5114966;28;20652;-69
2023/04/21 07:12:07;;;;;;;7.20;6.50;;;15.10;99.90;;;;;;5115189;28;20211;-69
2023/04/21 07:14:33;;;;;;;8.10;7.03;;;15.00;99.90;;;;;;5114586;28;20711;-69
2023/04/21 07:17:00;;;;;;;8.30;7.50;;;15.00;99.90;;;;;;5114727;28;20683;-70
2023/04/21 07:19:27;;;;;;;9.70;8.07;;;15.10;99.90;;;;;;5114834;28;20248;-70
2023/04/21 07:21:53;;;;;;;8.20;7.17;;;14.90;99.90;;;;;;5114909;28;20211;-70
2023/04/21 07:24:21;;;;;;;7.50;6.80;;;14.70;99.90;;;;;;5114634;28;20234;-71
2023/04/21 07:26:48;;;;;;;7.20;6.47;;;14.50;99.90;;;;;;5114826;28;20261;-70
2023/04/21 07:29:15;;;;;;;9.10;7.20;;;14.30;99.90;;;;;;5114773;28;20227;-69
2023/04/21 07:31:41;;;;;;;7.47;6.77;;;14.10;99.90;;;;;;5114788;28;20210;-68
2023/04/21 07:34:08;;;;;;;7.13;6.43;;;13.90;99.90;;;;;;5114611;28;20239;-69
2023/04/21 07:36:36;;;;;;;6.50;5.90;;;13.80;99.90;;;;;;5114501;27;20633;-70
2023/04/21 07:39:04;;;;;;;7.83;7.03;;;13.80;99.90;;;;;;5114822;28;20206;-69
2023/04/21 07:41:32;;;;;;;8.43;6.33;;;13.60;99.90;;;;;;5114784;28;20254;-69
2023/04/21 07:43:58;;;;;;;7.10;6.40;;;13.40;99.90;;;;;;5114367;28;20231;-70
2023/04/21 07:46:29;;;;;;;7.83;6.67;;;13.30;99.90;;;;;;5114661;28;20207;-71
2023/04/21 07:48:55;;;;;;;7.60;6.80;;;13.30;99.90;;;;;;5114656;28;20204;-70
2023/04/21 07:51:22;;;;;;;7.77;6.97;;;13.30;99.90;;;;;;5114625;27;20204;-68
2023/04/21 07:53:49;;;;;;;6.83;6.13;;;13.40;99.90;;;;;;5114207;28;20227;-69
2023/04/21 07:56:16;;;;;;;7.03;5.87;;;13.70;99.90;;;;;;5114488;28;20211;-69
2023/04/21 07:58:44;;;;;;;7.17;6.43;;;13.80;99.90;;;;;;5113759;28;20203;-69
2023/04/21 08:01:11;;;;;;;7.37;5.73;;;13.90;99.90;;;;;;5114028;27;20578;-68
2023/04/21 08:03:37;;;;;;;6.80;6.10;;;14.00;99.90;;;;;;5114357;27;20235;-69
2023/04/21 08:06:05;;;;;;;6.43;5.83;;;14.20;99.90;;;;;;5114504;28;20211;-68
2023/04/21 08:08:31;;;;;;;6.20;5.60;;;14.30;99.90;;;;;;5114000;28;20318;-66
2023/04/21 08:10:58;;;;;;;7.00;6.30;;;14.40;99.90;;;;;;5114360;27;20208;-63
2023/04/21 08:13:25;;;;;;;7.00;6.27;;;14.60;99.90;;;;;;5106380;28;20220;-66
2023/04/21 08:15:53;;;;;;;8.03;7.23;;;14.90;99.90;;;;;;5111976;28;20208;-65
2023/04/21 08:18:20;;;;;;;7.67;6.50;;;15.30;99.90;;;;;;5111930;28;20211;-64
2023/04/21 08:20:47;;;;;;;7.00;6.30;;;15.60;99.90;;;;;;5112468;28;20233;-64
2023/04/21 08:23:14;;;;;;;7.28;6.57;;;16.10;99.90;;;;;;5112571;28;20247;-65
2023/04/21 08:25:40;;;;;;;6.13;5.38;;;16.70;99.90;;;;;;5112277;28;20208;-64
2023/04/21 08:28:07;;;;;;;6.45;5.28;;;17.00;99.90;;;;;;5112095;28;20223;-66
2023/04/21 08:30:34;;;;;;;6.95;4.95;;;17.10;99.90;;;;;;5112307;28;20203;-65
2023/04/21 08:33:02;;;;;;;8.77;5.38;;;17.10;99.90;;;;;;5112617;28;20249;-66
2023/04/21 08:35:29;;;;;;;5.60;5.00;;;17.00;99.90;;;;;;5111845;28;20683;-66
2023/04/21 08:37:56;;;;;;;6.72;6.03;;;17.00;99.90;;;;;;5111822;28;20207;-65
2023/04/21 08:40:29;;;;;;;5.40;4.53;;;17.20;99.90;;;;;;5111941;28;20683;-66
2023/04/21 08:42:56;;;;;;;4.90;4.35;;;17.20;99.90;;;;;;5111512;28;20579;-66
2023/04/21 08:45:23;;;;;;;4.65;4.25;;;17.00;99.90;;;;;;5112118;28;20204;-66
2023/04/21 08:47:50;;;;;;;4.93;4.50;;;16.90;99.90;;;;;;5111784;28;20675;-66
2023/04/21 08:50:18;;;;;;;4.47;4.07;;;16.60;99.90;;;;;;5112053;28;20620;-66
2023/04/21 08:52:45;;;;;;;5.17;4.60;;;16.50;99.90;;;;;;5112196;28;20724;-66
2023/04/21 08:55:12;;;;;;;5.27;4.77;;;16.20;99.90;;;;;;5112183;28;20221;-66
2023/04/21 08:57:39;;;;;;;6.40;4.33;;;16.10;99.90;;;;;;5111433;28;20308;-66
2023/04/21 09:00:07;;;;;;;6.03;4.83;;;16.10;99.90;;;;;;5112434;28;20207;-65
2023/04/21 09:02:34;;;;;;;4.20;3.80;;;15.70;99.90;;;;;;5112555;28;20204;-68
2023/04/21 09:05:00;;;;;;;5.10;4.60;;;15.40;99.90;;;;;;5111342;28;20236;-68
2023/04/21 09:07:33;;;;;;;4.40;4.00;;;15.10;99.90;;;;;;5111763;28;20207;-66
2023/04/21 09:10:00;;;;;;;5.23;4.43;;;15.00;99.90;;;;;;5110904;28;20223;-66
2023/04/21 09:12:28;;;;;;;5.77;4.43;;;14.80;99.90;;;;;;5111513;28;20661;-69
2023/04/21 09:14:56;;;;;;;5.87;4.17;;;14.70;99.90;;;;;;5112002;28;20230;-67
2023/04/21 09:17:31;;;;;;;5.30;3.90;;;14.80;99.90;;;;;;5111744;28;20265;-66
2023/04/21 09:19:57;;;;;;;4.87;4.37;;;14.80;99.90;;;;;;5111763;28;20834;-67
2023/04/21 09:22:28;;;;;;;4.27;3.77;;;14.60;99.90;;;;;;5112300;28;20683;-66
2023/04/21 09:24:59;;;;;;;5.23;4.73;;;14.40;99.90;;;;;;5112156;28;20602;-67
2023/04/21 09:27:26;;;;;;;4.37;3.97;;;14.30;99.90;;;;;;5112044;28;20204;-66
2023/04/21 09:29:53;;;;;;;6.13;4.67;;;14.20;99.90;;;;;;5112390;28;20306;-63
2023/04/21 09:32:20;;;;;;;4.80;4.40;;;14.30;99.90;;;;;;5112751;28;20208;-66
2023/04/21 09:34:47;;;;;;;5.73;4.87;;;14.20;99.90;;;;;;5112237;28;20239;-65
2023/04/21 09:37:14;;;;;;;5.60;5.10;;;14.10;99.90;;;;;;5112773;28;20214;-68
2023/04/21 09:39:45;;;;;;;5.80;4.93;;;14.00;99.90;;;;;;5115762;28;20221;-65
2023/04/21 09:42:13;;;;;;;5.40;4.50;;;14.00;99.90;;;;;;5114050;28;20207;-65
2023/04/21 09:44:40;;;;;;;7.40;5.73;;;14.00;99.90;;;;;;5112109;28;20227;-66
2023/04/21 09:47:11;;;;;;;6.40;5.33;;;14.00;99.90;;;;;;5111384;28;20230;-64
2023/04/21 09:49:43;;;;;;;7.13;5.43;;;14.10;99.90;;;;;;5111763;28;20319;-62
2023/04/21 09:52:12;;;;;;;6.13;5.20;;;14.30;99.90;;;;;;5111522;28;20256;-67
2023/04/21 09:54:47;;;;;;;6.93;6.00;;;14.40;99.90;;;;;;5111030;28;20281;-65
2023/04/21 09:57:21;;;;;;;6.53;5.57;;;14.40;99.90;;;;;;5110931;28;20842;-64
2023/04/21 09:59:50;;;;;;;6.27;5.43;;;14.50;99.90;;;;;;5111807;28;20223;-66
2023/04/21 10:02:19;;;;;;;6.43;5.73;;;14.70;99.90;;;;;;5111187;28;20207;-64
2023/04/21 10:04:46;;;;;;;6.27;5.67;;;14.80;99.90;;;;;;5110886;28;20255;-67
2023/04/21 10:07:13;;;;;;;7.23;5.50;;;15.00;99.90;;;;;;5110927;28;20243;-65
2023/04/21 10:09:45;;;;;;;8.80;5.93;;;15.10;99.90;;;;;;5110969;28;20717;-66
2023/04/21 10:12:14;;;;;;;6.93;6.13;;;15.20;99.90;;;;;;5111014;28;20207;-64
2023/04/21 10:14:42;;;;;;;6.87;5.63;;;15.40;99.90;;;;;;5110659;28;20606;-64
2023/04/21 10:17:10;;;;;;;7.50;6.10;;;15.60;99.90;;;;;;5111027;28;20216;-65
2023/04/21 10:19:39;;;;;;;6.90;5.80;;;15.50;99.90;;;;;;5110841;28;20210;-66
2023/04/21 10:22:07;;;;;;;6.57;5.73;;;15.50;99.90;;;;;;5114640;28;20211;-65
2023/04/21 10:24:38;;;;;;;7.67;5.63;;;15.60;99.90;;;;;;5115001;28;20314;-65
2023/04/21 10:27:05;;;;;;;7.17;5.80;;;15.80;99.90;;;;;;5114296;28;20231;-66
2023/04/21 10:29:34;;;;;;;6.23;5.47;;;15.90;99.90;;;;;;5114940;28;20276;-65
2023/04/21 10:32:03;;;;;;;5.87;5.13;;;15.90;99.90;;;;;;5115508;28;20260;-67
2023/04/21 10:34:35;;;;;;;6.23;5.47;;;16.00;99.90;;;;;;5114517;28;20321;-66
2023/04/21 10:37:14;;;;;;;8.00;6.80;;;16.10;99.90;;;;;;5114999;28;20207;-65
2023/04/21 10:39:47;;;;;;;6.65;6.05;;;16.30;99.90;;;;;;5114897;28;20211;-65
2023/04/21 10:42:25;;;;;;;6.07;4.80;;;16.50;99.90;;;;;;5114361;28;20302;-64
2023/04/21 10:44:53;;;;;;;5.60;5.00;;;16.70;99.90;;;;;;5114047;28;20224;-64
2023/04/21 10:47:30;;;;;;;6.07;5.43;;;16.70;99.90;;;;;;5113951;28;20624;-63
2023/04/21 10:49:58;;;;;;;6.23;5.20;;;16.70;99.90;;;;;;5113500;28;20241;-65
2023/04/21 10:52:32;;;;;;;8.95;5.18;;;16.60;99.90;;;;;;5114403;28;20214;-65
2023/04/21 10:55:09;;;;;;;5.68;5.00;;;16.60;99.90;;;;;;5114081;28;20657;-65
2023/04/21 10:57:36;;;;;;;5.95;5.00;;;17.00;99.90;;;;;;5113905;28;20256;-65
2023/04/21 11:00:05;;;;;;;5.43;4.50;;;16.90;99.90;;;;;;5114512;28;20244;-64
2023/04/21 11:02:34;;;;;;;5.07;4.57;;;17.10;99.90;;;;;;5113675;28;20664;-64
2023/04/21 11:05:02;;;;;;;4.88;4.13;;;17.70;99.90;;;;;;5113994;28;20220;-65
2023/04/21 11:07:29;;;;;;;4.72;4.25;;;18.30;99.90;;;;;;5113338;28;20596;-65
2023/04/21 11:09:58;;;;;;;5.45;4.90;;;18.90;99.90;;;;;;5113995;28;20224;-65
2023/04/21 11:12:28;;;;;;;6.03;4.40;;;19.20;99.90;;;;;;5114195;28;20647;-66
2023/04/21 11:14:56;;;;;;;5.20;4.70;;;19.40;99.90;;;;;;5113349;28;20253;-67
2023/04/21 11:17:23;;;;;;;5.40;4.68;;;19.40;99.90;;;;;;5113783;28;20200;-66
2023/04/21 11:19:53;;;;;;;6.10;5.50;;;19.10;99.90;;;;;;5113755;28;20264;-67
2023/04/21 11:22:21;;;;;;;5.10;4.60;;;18.90;99.90;;;;;;5114007;28;20638;-66
2023/04/21 11:24:49;;;;;;;5.45;4.53;;;18.70;99.90;;;;;;5114113;28;20230;-67
2023/04/21 11:27:16;;;;;;;4.55;3.85;;;18.60;99.90;;;;;;5113033;28;20229;-66
2023/04/21 11:29:45;;;;;;;4.22;3.83;;;18.50;99.90;;;;;;5113440;28;20766;-67
2023/04/21 11:32:12;;;;;;;4.93;4.43;;;18.50;99.90;;;;;;5113023;28;20415;-67
2023/04/21 11:34:39;;;;;;;4.78;4.32;;;18.50;99.90;;;;;;5113066;28;20555;-66
2023/04/21 11:37:09;;;;;;;5.55;4.70;;;18.60;99.90;;;;;;5113461;28;20583;-66
2023/04/21 11:39:39;;;;;;;4.60;4.15;;;18.70;99.90;;;;;;5113427;28;20279;-68
2023/04/21 11:42:06;;;;;;;5.25;4.40;;;18.90;99.90;;;;;;5112802;28;20199;-66
2023/04/21 11:44:35;;;;;;;4.95;4.45;;;18.90;99.90;;;;;;5112774;28;20648;-67
2023/04/21 11:47:12;;;;;;;5.03;4.53;;;19.00;99.90;;;;;;5113136;28;20223;-66
2023/04/21 11:49:45;;;;;;;8.10;6.40;;;19.20;99.90;;;;;;5113126;28;20577;-65
2023/04/21 11:52:20;;;;;;;4.88;4.40;;;19.20;99.90;;;;;;5113203;28;20204;-69
2023/04/21 11:54:47;;;;;;;5.00;4.50;;;19.10;99.90;;;;;;5112293;28;20258;-66
2023/04/21 11:57:18;;;;;;;6.60;4.57;;;19.00;99.90;;;;;;5113125;28;20401;-66
2023/04/21 11:59:45;;;;;;;5.30;4.10;;;19.10;99.90;;;;;;5113764;28;20199;-66
2023/04/21 12:02:14;;;;;;;4.85;4.25;;;19.00;99.90;;;;;;5112924;28;20230;-65
2023/04/21 12:04:41;;;;;;;5.07;4.50;;;18.90;99.90;;;;;;5113013;27;20315;-66
2023/04/21 12:07:07;;;;;;;5.68;4.70;;;18.90;99.90;;;;;;5112789;28;20603;-67
2023/04/21 12:09:36;;;;;;;5.28;4.60;;;18.80;99.90;;;;;;5112539;28;20735;-66
2023/04/21 12:12:05;;;;;;;5.20;4.60;;;18.80;99.90;;;;;;5112782;28;20630;-67
2023/04/21 12:14:33;;;;;;;6.53;5.07;;;18.90;99.90;;;;;;5112743;28;20223;-67
2023/04/21 12:17:00;;;;;;;4.53;3.80;;;19.10;99.90;;;;;;5112265;28;20207;-67
2023/04/21 12:19:36;;;;;;;4.80;3.83;;;19.30;99.90;;;;;;5112942;28;20210;-66
2023/04/21 12:22:07;;;;;;;5.32;3.50;;;19.20;99.90;;;;;;5113113;28;20207;-66
2023/04/21 12:24:36;;;;;;;4.82;3.53;;;19.20;99.90;;;;;;5112139;28;20773;-67
2023/04/21 12:27:02;;;;;;;4.97;4.03;;;19.30;99.90;;;;;;5112186;28;20208;-67
2023/04/21 12:29:29;;;;;;;4.47;3.72;;;19.20;99.90;;;;;;5112254;28;20223;-68
2023/04/21 12:31:56;;;;;;;4.30;3.90;;;19.20;99.90;;;;;;5112043;28;20199;-68
2023/04/21 12:34:23;;;;;;;5.25;3.55;;;19.20;99.90;;;;;;5112672;28;20628;-63
2023/04/21 12:36:50;;;;;;;4.32;3.90;;;19.30;99.90;;;;;;5113169;28;20252;-66
2023/04/21 12:39:17;;;;;;;5.55;4.03;;;19.50;99.90;;;;;;5113287;28;20203;-67
2023/04/21 12:41:46;;;;;;;4.15;3.55;;;19.60;99.90;;;;;;5113365;28;20210;-67
2023/04/21 12:44:12;;;;;;;7.53;4.30;;;19.60;99.90;;;;;;5112971;28;20662;-68